createdAt,value
2023-05-09T00:00:39.844Z,69.93
2023-05-09T00:03:06.907Z,69.22
2023-05-09T00:05:33.966Z,69.50
2023-05-09T00:08:00.912Z,69.84
2023-05-09T00:10:28.104Z,70.54
2023-05-09T00:12:55.133Z,71.48
2023-05-09T00:15:22.026Z,71.23
2023-05-09T00:17:49.031Z,71.69
2023-05-09T00:20:16.118Z,72.64
2023-05-09T00:22:43.075Z,71.89
2023-05-09T00:25:10.878Z,71.54
2023-05-09T00:27:38.253Z,72.31
2023-05-09T00:30:05.961Z,71.68
2023-05-09T00:32:34.077Z,73.46
2023-05-09T00:35:01.089Z,72.29
2023-05-09T00:37:30.649Z,72.75
2023-05-09T00:39:57.650Z,72.77
2023-05-09T00:42:24.699Z,72.24
2023-05-09T00:44:51.629Z,72.45
2023-05-09T00:47:18.624Z,73.20
2023-05-09T00:49:45.792Z,72.80
2023-05-09T00:52:12.762Z,73.51
2023-05-09T00:54:39.830Z,73.39
2023-05-09T00:57:07.189Z,72.70
2023-05-09T00:59:34.230Z,74.00
2023-05-09T01:02:01.136Z,73.53
2023-05-09T01:04:28.213Z,73.61
2023-05-09T01:06:57.777Z,73.32
2023-05-09T01:09:42.698Z,72.89
2023-05-09T01:12:26.676Z,72.73
2023-05-09T01:14:56.282Z,72.90
2023-05-09T01:18:06.162Z,72.04
2023-05-09T01:20:41.096Z,72.13
2023-05-09T01:23:52.569Z,72.71
2023-05-09T01:26:24.514Z,72.81
2023-05-09T01:29:15.636Z,72.93
2023-05-09T01:31:46.690Z,73.33
2023-05-09T01:34:17.564Z,73.87
2023-05-09T01:36:44.602Z,74.58
2023-05-09T01:39:13.305Z,75.58
2023-05-09T01:41:40.454Z,76.09
2023-05-09T01:44:11.855Z,75.48
2023-05-09T01:46:40.339Z,76.31
2023-05-09T01:49:09.572Z,75.96
2023-05-09T01:51:38.646Z,75.47
2023-05-09T01:54:06.838Z,75.41
2023-05-09T01:56:36.351Z,75.71
2023-05-09T01:59:06.639Z,75.44
2023-05-09T02:01:35.130Z,76.17
2023-05-09T02:04:04.562Z,76.56
2023-05-09T02:06:32.768Z,76.99
2023-05-09T02:09:01.096Z,76.94
2023-05-09T02:11:28.016Z,77.04
2023-05-09T02:13:55.282Z,77.10
2023-05-09T02:16:22.594Z,77.98
2023-05-09T02:18:49.545Z,78.06
2023-05-09T02:21:16.547Z,77.91
2023-05-09T02:23:43.623Z,77.75
2023-05-09T02:26:11.199Z,79.08
2023-05-09T02:28:39.216Z,79.11
2023-05-09T02:31:08.470Z,79.86
2023-05-09T02:33:38.167Z,80.28
2023-05-09T02:36:06.150Z,80.26
2023-05-09T02:38:33.423Z,80.01
2023-05-09T02:41:00.349Z,80.17
2023-05-09T02:43:27.236Z,79.45
2023-05-09T02:45:54.277Z,79.13
2023-05-09T02:48:21.220Z,79.12
2023-05-09T02:50:48.178Z,78.80
2023-05-09T02:53:15.094Z,78.13
2023-05-09T02:55:42.149Z,78.01
2023-05-09T02:58:14.255Z,78.13
2023-05-09T03:00:42.723Z,78.52
2023-05-09T03:03:09.924Z,78.30
2023-05-09T03:05:37.262Z,78.33
2023-05-09T03:08:04.542Z,78.28
2023-05-09T03:10:31.542Z,77.77
2023-05-09T03:12:58.515Z,78.03
2023-05-09T03:15:25.417Z,77.95
2023-05-09T03:17:52.417Z,78.20
2023-05-09T03:20:19.530Z,78.56
2023-05-09T03:22:48.384Z,78.65
2023-05-09T03:25:16.344Z,78.90
2023-05-09T03:27:43.642Z,78.72
2023-05-09T03:30:11.042Z,78.73
2023-05-09T03:32:37.991Z,78.74
2023-05-09T03:35:05.222Z,78.60
2023-05-09T03:37:32.264Z,78.70
2023-05-09T03:39:59.158Z,78.96
2023-05-09T03:42:26.107Z,79.10
2023-05-09T03:44:53.111Z,79.69
2023-05-09T03:47:20.009Z,79.52
2023-05-09T03:49:47.111Z,80.00
2023-05-09T03:52:14.368Z,80.46
2023-05-09T03:54:41.287Z,80.49
2023-05-09T03:57:08.267Z,80.46
2023-05-09T03:59:35.158Z,79.94
2023-05-09T04:02:02.137Z,80.17
2023-05-09T04:04:29.196Z,80.24
2023-05-09T04:06:56.054Z,79.81
2023-05-09T04:09:23.065Z,79.56
2023-05-09T04:11:49.986Z,79.77
2023-05-09T04:14:17.087Z,79.49
2023-05-09T04:16:44.045Z,79.68
2023-05-09T04:19:11.086Z,79.03
2023-05-09T04:21:38.096Z,79.14
2023-05-09T04:24:05.169Z,78.11
2023-05-09T04:26:32.197Z,78.04
2023-05-09T04:28:59.094Z,78.07
2023-05-09T04:31:26.655Z,77.53
2023-05-09T04:33:53.712Z,76.90
2023-05-09T04:36:21.251Z,76.93
2023-05-09T04:38:48.214Z,76.53
2023-05-09T04:41:15.389Z,76.44
2023-05-09T04:43:43.485Z,76.03
2023-05-09T04:46:10.432Z,76.81
2023-05-09T04:48:37.455Z,76.13
2023-05-09T04:51:04.350Z,75.46
2023-05-09T04:53:32.081Z,74.07
2023-05-09T04:55:59.026Z,73.64
2023-05-09T04:58:26.693Z,73.30
2023-05-09T05:00:53.621Z,73.02
2023-05-09T05:03:20.558Z,72.49
2023-05-09T05:05:47.583Z,71.71
2023-05-09T05:08:14.541Z,70.71
2023-05-09T05:10:41.514Z,71.55
2023-05-09T05:13:08.495Z,71.24
2023-05-09T05:15:35.515Z,70.61
2023-05-09T05:18:02.416Z,69.66
2023-05-09T05:20:29.427Z,70.23
2023-05-09T05:22:56.330Z,69.86
2023-05-09T05:25:23.634Z,69.68
2023-05-09T05:27:50.556Z,69.43
2023-05-09T05:30:18.091Z,68.91
2023-05-09T05:32:45.137Z,68.31
2023-05-09T05:35:12.418Z,68.26
2023-05-09T05:37:40.761Z,67.64
2023-05-09T05:40:08.564Z,67.52
2023-05-09T05:42:35.842Z,67.25
2023-05-09T05:45:05.904Z,67.76
2023-05-09T05:47:37.340Z,66.67
2023-05-09T05:50:08.304Z,66.93
2023-05-09T05:52:35.390Z,66.73
2023-05-09T05:55:02.296Z,66.52
2023-05-09T05:57:29.235Z,66.76
2023-05-09T05:59:57.491Z,65.58
2023-05-09T06:02:24.436Z,65.72
2023-05-09T06:04:53.324Z,65.52
2023-05-09T06:07:48.727Z,65.77
2023-05-09T06:10:20.483Z,66.08
2023-05-09T06:12:47.550Z,65.13
2023-05-09T06:15:14.728Z,66.05
2023-05-09T06:17:42.070Z,64.60
2023-05-09T06:20:09.170Z,64.88
2023-05-09T06:22:36.248Z,64.51
2023-05-09T06:25:03.461Z,64.92
2023-05-09T06:27:30.474Z,63.54
2023-05-09T06:29:57.338Z,64.20
2023-05-09T06:32:25.140Z,63.62
2023-05-09T06:34:52.805Z,63.47
2023-05-09T06:37:19.710Z,63.88
2023-05-09T06:39:46.736Z,62.46
2023-05-09T06:42:13.661Z,63.31
2023-05-09T06:44:40.541Z,61.06
2023-05-09T06:47:07.548Z,61.81
2023-05-09T06:49:34.523Z,62.57
2023-05-09T06:52:01.513Z,61.20
2023-05-09T06:54:28.414Z,60.93
2023-05-09T06:56:55.741Z,59.53
2023-05-09T06:59:22.799Z,59.51
2023-05-09T07:01:50.046Z,58.31
2023-05-09T07:04:16.992Z,58.06
2023-05-09T07:06:44.258Z,57.54
2023-05-09T07:09:11.348Z,57.45
2023-05-09T07:11:38.402Z,57.20
2023-05-09T07:14:09.099Z,56.73
2023-05-09T07:16:39.531Z,55.38
2023-05-09T07:19:12.191Z,54.45
2023-05-09T07:21:39.137Z,54.62
2023-05-09T07:24:06.682Z,54.26
2023-05-09T07:26:35.818Z,53.66
2023-05-09T07:29:02.823Z,53.72
2023-05-09T07:31:30.308Z,54.36
2023-05-09T07:33:57.333Z,53.61
2023-05-09T07:36:24.511Z,54.12
2023-05-09T07:38:52.862Z,53.58
2023-05-09T07:41:19.799Z,53.64
2023-05-09T07:43:46.843Z,54.14
2023-05-09T07:46:14.013Z,54.10
2023-05-09T07:48:41.083Z,53.62
2023-05-09T07:51:13.301Z,52.91
2023-05-09T07:53:40.309Z,52.07
2023-05-09T07:56:07.947Z,50.04
2023-05-09T07:58:35.050Z,51.49
2023-05-09T08:01:04.616Z,52.26
2023-05-09T08:03:31.881Z,51.06
2023-05-09T08:05:59.064Z,51.37
2023-05-09T08:08:26.349Z,50.91
2023-05-09T08:10:53.391Z,51.74
2023-05-09T08:13:20.999Z,51.65
2023-05-09T08:15:48.779Z,51.37
2023-05-09T08:18:15.999Z,50.88
2023-05-09T08:20:43.340Z,51.32
2023-05-09T08:23:11.121Z,50.25
2023-05-09T08:25:38.400Z,49.55
2023-05-09T08:28:05.286Z,48.79
2023-05-09T08:30:34.454Z,48.46
2023-05-09T08:33:01.619Z,48.54
2023-05-09T08:35:28.663Z,48.17
2023-05-09T08:37:55.776Z,47.10
2023-05-09T08:40:22.758Z,46.49
2023-05-09T08:42:50.599Z,45.12
2023-05-09T08:45:33.372Z,43.57
2023-05-09T08:48:03.285Z,43.57
2023-05-09T08:50:30.447Z,42.35
2023-05-09T08:52:57.550Z,42.69
2023-05-09T08:55:25.572Z,41.82
2023-05-09T08:57:53.133Z,41.00
2023-05-09T09:00:21.479Z,39.90
2023-05-09T09:02:49.447Z,38.69
2023-05-09T09:05:39.387Z,37.72
2023-05-09T09:08:05.640Z,38.09
2023-05-09T09:10:33.127Z,36.63
2023-05-09T09:13:01.736Z,35.47
2023-05-09T09:15:32.500Z,34.61
2023-05-09T09:18:06.081Z,33.88
2023-05-09T09:20:34.852Z,33.21
2023-05-09T09:23:04.859Z,34.64
2023-05-09T09:25:34.357Z,33.52
2023-05-09T09:28:04.256Z,33.14
2023-05-09T09:30:31.394Z,33.42
2023-05-09T09:33:01.445Z,33.28
2023-05-09T09:35:28.509Z,31.84
2023-05-09T09:38:00.188Z,30.08
2023-05-09T09:40:27.352Z,30.17
2023-05-09T09:42:54.295Z,30.89
2023-05-09T09:45:21.380Z,30.88
2023-05-09T09:47:50.165Z,29.55
2023-05-09T09:50:20.355Z,31.58
2023-05-09T09:52:56.046Z,30.63
2023-05-09T09:55:24.556Z,29.62
2023-05-09T09:57:51.930Z,27.33
2023-05-09T10:00:24.457Z,27.40
2023-05-09T10:02:56.840Z,26.76
2023-05-09T10:05:28.803Z,29.23
2023-05-09T10:08:04.400Z,28.71
2023-05-09T10:10:33.758Z,30.68
2023-05-09T10:13:04.485Z,30.86
2023-05-09T10:15:41.359Z,29.06
2023-05-09T10:18:14.873Z,28.34
2023-05-09T10:20:47.350Z,28.21
2023-05-09T10:23:18.527Z,28.25
2023-05-09T10:25:49.657Z,28.97
2023-05-09T10:28:18.860Z,30.06
2023-05-09T10:30:59.847Z,31.39
2023-05-09T10:33:34.465Z,32.17
2023-05-09T10:36:03.569Z,32.77
2023-05-09T10:38:31.288Z,32.97
2023-05-09T10:40:59.222Z,33.73
2023-05-09T10:43:27.293Z,33.67
2023-05-09T10:46:06.728Z,33.74
2023-05-09T10:48:34.196Z,33.82
2023-05-09T10:51:04.556Z,34.13
2023-05-09T10:53:40.882Z,34.48
2023-05-09T10:56:08.338Z,33.44
2023-05-09T10:58:40.770Z,32.16
2023-05-09T11:01:07.697Z,30.74
2023-05-09T11:03:54.893Z,29.67
2023-05-09T11:06:40.632Z,30.29
2023-05-09T11:09:35.934Z,30.77
2023-05-09T11:12:06.131Z,32.32
2023-05-09T11:14:36.081Z,33.32
2023-05-09T11:17:05.194Z,33.81
2023-05-09T11:19:59.086Z,32.30
2023-05-09T11:22:32.471Z,32.22
2023-05-09T11:25:02.373Z,33.53
2023-05-09T11:27:29.667Z,32.77
2023-05-09T11:29:58.817Z,33.57
2023-05-09T11:32:32.342Z,33.28
2023-05-09T11:35:17.090Z,32.36
2023-05-09T11:37:55.368Z,32.65
2023-05-09T11:40:23.097Z,32.65
2023-05-09T11:42:58.105Z,32.25
2023-05-09T11:45:33.543Z,32.94
2023-05-09T11:48:01.473Z,31.43
2023-05-09T11:50:28.733Z,31.46
2023-05-09T11:52:58.797Z,32.15
2023-05-09T11:55:28.220Z,30.29
2023-05-09T11:57:57.250Z,28.33
2023-05-09T12:00:28.813Z,28.90
2023-05-09T12:02:55.990Z,30.60
2023-05-09T12:05:23.890Z,32.36
2023-05-09T12:07:52.526Z,32.70
2023-05-09T12:10:21.398Z,32.33
2023-05-09T12:12:55.690Z,30.78
2023-05-09T12:15:23.188Z,28.71
2023-05-09T12:18:04.616Z,30.17
2023-05-09T12:20:41.078Z,31.04
2023-05-09T12:23:10.522Z,28.90
2023-05-09T12:25:37.473Z,27.39
2023-05-09T12:28:04.868Z,27.33
2023-05-09T12:30:32.686Z,27.46
2023-05-09T12:32:59.887Z,28.01
2023-05-09T12:35:27.168Z,26.98
2023-05-09T12:37:58.612Z,25.90
2023-05-09T12:40:25.762Z,27.69
2023-05-09T12:42:54.421Z,28.79
2023-05-09T12:45:21.391Z,29.43
2023-05-09T12:47:52.148Z,30.08
2023-05-09T12:50:19.729Z,29.87
2023-05-09T12:53:02.768Z,31.17
2023-05-09T12:55:31.893Z,32.76
2023-05-09T12:58:03.521Z,33.74
2023-05-09T13:00:44.231Z,31.93
2023-05-09T13:03:27.650Z,30.30
2023-05-09T13:05:59.151Z,27.97
2023-05-09T13:08:27.035Z,27.37
2023-05-09T13:11:04.017Z,27.05
2023-05-09T13:13:35.459Z,27.43
2023-05-09T13:16:04.410Z,28.62
2023-05-09T13:18:31.401Z,26.65
2023-05-09T13:20:58.270Z,26.42
2023-05-09T13:23:25.256Z,29.19
2023-05-09T13:25:52.126Z,30.22
2023-05-09T13:28:19.161Z,31.76
2023-05-09T13:30:46.121Z,31.61
2023-05-09T13:33:24.491Z,33.38
2023-05-09T13:35:53.168Z,31.20
2023-05-09T13:38:20.074Z,31.59
2023-05-09T13:40:47.035Z,33.35
2023-05-09T13:43:14.007Z,30.38
2023-05-09T13:45:41.109Z,31.16
2023-05-09T13:48:08.258Z,29.91
2023-05-09T13:50:35.177Z,28.92
2023-05-09T13:53:02.184Z,27.22
2023-05-09T13:55:30.936Z,27.80
2023-05-09T13:57:57.989Z,26.65
2023-05-09T14:00:34.097Z,25.20
2023-05-09T14:03:02.922Z,25.22
2023-05-09T14:05:33.110Z,25.58
2023-05-09T14:08:01.708Z,25.20
2023-05-09T14:10:29.107Z,24.64
2023-05-09T14:12:56.591Z,25.19
2023-05-09T14:15:23.733Z,24.37
2023-05-09T14:17:50.951Z,27.07
2023-05-09T14:20:18.098Z,29.75
2023-05-09T14:22:45.217Z,30.40
2023-05-09T14:25:12.305Z,31.61
2023-05-09T14:27:39.420Z,31.85
2023-05-09T14:30:07.048Z,32.97
2023-05-09T14:32:33.971Z,33.44
2023-05-09T14:35:00.893Z,33.89
2023-05-09T14:37:29.510Z,34.10
2023-05-09T14:39:56.587Z,34.87
2023-05-09T14:42:23.714Z,34.29
2023-05-09T14:44:50.639Z,34.35
2023-05-09T14:47:17.754Z,31.57
2023-05-09T14:49:44.942Z,30.29
2023-05-09T14:52:12.152Z,28.87
2023-05-09T14:54:39.123Z,29.25
2023-05-09T14:57:07.514Z,30.76
2023-05-09T14:59:36.876Z,29.54
2023-05-09T15:02:04.194Z,28.29
2023-05-09T15:04:31.436Z,27.87
2023-05-09T15:06:59.192Z,27.54
2023-05-09T15:09:26.749Z,27.37
2023-05-09T15:11:55.125Z,27.05
2023-05-09T15:14:22.166Z,26.22
2023-05-09T15:16:51.754Z,27.99
2023-05-09T15:19:19.232Z,30.01
2023-05-09T15:21:46.165Z,31.31
2023-05-09T15:24:13.120Z,32.78
2023-05-09T15:26:40.075Z,32.37
2023-05-09T15:29:07.199Z,30.88
2023-05-09T15:31:36.411Z,30.05
2023-05-09T15:34:03.630Z,30.43
2023-05-09T15:36:31.137Z,30.40
2023-05-09T15:38:58.100Z,30.73
2023-05-09T15:41:25.131Z,30.87
2023-05-09T15:43:52.702Z,31.49
2023-05-09T15:46:19.638Z,32.09
2023-05-09T15:48:46.562Z,32.55
2023-05-09T15:51:13.934Z,32.63
2023-05-09T15:53:41.170Z,32.29
2023-05-09T15:56:09.131Z,32.66
2023-05-09T15:58:36.872Z,32.72
2023-05-09T16:01:13.014Z,32.83
2023-05-09T16:03:40.991Z,33.90
2023-05-09T16:06:08.053Z,33.85
2023-05-09T16:08:35.018Z,33.65
2023-05-09T16:11:02.190Z,33.93
2023-05-09T16:13:30.106Z,34.01
2023-05-09T16:15:57.189Z,34.02
2023-05-09T16:18:24.305Z,34.92
2023-05-09T16:20:51.428Z,35.35
2023-05-09T16:23:18.307Z,36.09
2023-05-09T16:25:45.134Z,35.95
2023-05-09T16:28:12.018Z,35.72
2023-05-09T16:30:38.950Z,35.87
2023-05-09T16:33:05.872Z,36.10
2023-05-09T16:35:33.094Z,36.11
2023-05-09T16:38:00.002Z,36.21
2023-05-09T16:40:26.921Z,36.16
2023-05-09T16:42:53.943Z,35.28
2023-05-09T16:45:21.036Z,34.62
2023-05-09T16:47:47.990Z,34.36
2023-05-09T16:50:15.200Z,34.51
2023-05-09T16:52:42.294Z,34.71
2023-05-09T16:55:09.640Z,35.16
2023-05-09T16:57:36.665Z,35.26
2023-05-09T17:00:09.772Z,36.19
2023-05-09T17:02:37.331Z,36.29
2023-05-09T17:05:04.937Z,36.51
2023-05-09T17:07:35.528Z,37.38
2023-05-09T17:10:02.722Z,37.91
2023-05-09T17:12:30.320Z,38.40
2023-05-09T17:14:57.187Z,38.41
2023-05-09T17:17:24.021Z,38.48
2023-05-09T17:19:51.210Z,38.28
2023-05-09T17:22:18.110Z,38.24
2023-05-09T17:24:45.016Z,38.40
2023-05-09T17:27:12.057Z,38.74
2023-05-09T17:29:39.279Z,39.13
2023-05-09T17:32:07.002Z,39.17
2023-05-09T17:34:34.131Z,38.72
2023-05-09T17:37:02.539Z,39.02
2023-05-09T17:39:30.087Z,39.52
2023-05-09T17:41:56.981Z,39.72
2023-05-09T17:44:24.465Z,40.08
2023-05-09T17:46:51.423Z,40.38
2023-05-09T17:49:18.458Z,40.45
2023-05-09T17:51:45.453Z,40.73
2023-05-09T17:54:13.039Z,41.15
2023-05-09T17:56:40.234Z,41.25
2023-05-09T17:59:07.841Z,41.65
2023-05-09T18:01:34.805Z,42.04
2023-05-09T18:04:02.134Z,42.45
2023-05-09T18:06:29.403Z,42.22
2023-05-09T18:08:56.325Z,42.87
2023-05-09T18:11:23.234Z,43.64
2023-05-09T18:13:50.644Z,43.96
2023-05-09T18:16:17.739Z,44.63
2023-05-09T18:18:45.010Z,45.27
2023-05-09T18:21:12.151Z,46.26
2023-05-09T18:23:39.105Z,47.04
2023-05-09T18:26:06.030Z,47.10
2023-05-09T18:28:39.249Z,47.56
2023-05-09T18:31:09.558Z,48.10
2023-05-09T18:33:39.923Z,48.51
2023-05-09T18:36:09.607Z,48.86
2023-05-09T18:38:41.019Z,49.64
2023-05-09T18:41:10.427Z,49.96
2023-05-09T18:43:42.066Z,49.73
2023-05-09T18:46:09.316Z,50.71
2023-05-09T18:48:36.568Z,50.79
2023-05-09T18:51:03.598Z,51.36
2023-05-09T18:53:30.994Z,51.85
2023-05-09T18:55:58.428Z,52.18
2023-05-09T18:58:25.905Z,53.13
2023-05-09T19:00:55.348Z,53.06
2023-05-09T19:03:25.190Z,54.22
2023-05-09T19:05:52.466Z,54.68
2023-05-09T19:08:20.388Z,54.92
2023-05-09T19:10:49.687Z,55.65
2023-05-09T19:13:17.843Z,55.66
2023-05-09T19:15:47.417Z,56.03
2023-05-09T19:18:16.237Z,56.92
2023-05-09T19:20:53.937Z,56.54
2023-05-09T19:23:23.836Z,57.41
2023-05-09T19:25:53.184Z,57.19
2023-05-09T19:28:23.037Z,57.57
2023-05-09T19:30:52.063Z,59.16
2023-05-09T19:33:21.820Z,59.50
2023-05-09T19:35:50.183Z,60.28
2023-05-09T19:38:18.453Z,61.83
2023-05-09T19:40:49.854Z,60.85
2023-05-09T19:43:17.913Z,62.22
2023-05-09T19:45:47.085Z,62.89
2023-05-09T19:48:16.276Z,63.19
2023-05-09T19:50:46.431Z,63.23
2023-05-09T19:53:14.872Z,63.35
2023-05-09T19:55:47.454Z,63.77
2023-05-09T19:58:19.779Z,64.43
2023-05-09T20:00:48.100Z,64.30
2023-05-09T20:03:15.808Z,65.30
2023-05-09T20:08:27.887Z,65.04
2023-05-09T20:10:55.614Z,66.34
2023-05-09T20:13:23.420Z,66.15
2023-05-09T20:15:51.123Z,67.57
2023-05-09T20:18:19.179Z,67.60
2023-05-09T20:20:47.260Z,67.71
2023-05-09T20:23:15.450Z,68.42
2023-05-09T20:25:43.182Z,68.49
2023-05-09T20:28:12.482Z,70.21
2023-05-09T20:30:40.180Z,69.12
2023-05-09T20:33:08.328Z,69.58
2023-05-09T20:35:36.043Z,69.80
2023-05-09T20:38:05.220Z,70.17
2023-05-09T20:40:32.748Z,70.19
2023-05-09T20:43:00.333Z,70.41
2023-05-09T20:45:29.541Z,70.74
2023-05-09T20:47:57.287Z,70.88
2023-05-09T20:50:25.657Z,71.13
2023-05-09T20:52:52.792Z,72.46
2023-05-09T20:55:19.870Z,72.07
2023-05-09T20:57:46.780Z,72.62
2023-05-09T21:00:14.339Z,73.74
2023-05-09T21:02:41.495Z,74.46
2023-05-09T21:05:08.470Z,73.75
2023-05-09T21:07:35.350Z,74.22
2023-05-09T21:10:02.358Z,74.60
2023-05-09T21:12:30.586Z,74.82
2023-05-09T21:14:57.781Z,73.86
2023-05-09T21:17:24.634Z,74.20
2023-05-09T21:19:51.915Z,74.27
2023-05-09T21:22:18.802Z,74.21
2023-05-09T21:24:45.652Z,73.89
2023-05-09T21:27:12.512Z,74.37
2023-05-09T21:29:39.378Z,73.68
2023-05-09T21:32:06.386Z,73.56
2023-05-09T21:34:33.326Z,73.50
2023-05-09T21:37:00.129Z,74.20
2023-05-09T21:39:26.897Z,73.60
2023-05-09T21:41:53.743Z,73.75
2023-05-09T21:44:20.690Z,73.16
2023-05-09T21:46:47.733Z,72.49
2023-05-09T21:49:16.960Z,73.71
2023-05-09T21:51:43.800Z,73.36
2023-05-09T21:54:11.141Z,73.19
2023-05-09T21:56:38.105Z,72.60
2023-05-09T21:59:04.935Z,72.38
2023-05-09T22:01:31.872Z,72.26
2023-05-09T22:03:58.883Z,72.13
2023-05-09T22:06:26.037Z,73.64
2023-05-09T22:08:52.886Z,73.93
2023-05-09T22:11:20.436Z,72.98
2023-05-09T22:13:47.383Z,74.23
2023-05-09T22:16:14.397Z,75.00
2023-05-09T22:18:41.281Z,74.93
2023-05-09T22:21:08.329Z,73.88
2023-05-09T22:23:35.404Z,74.26
2023-05-09T22:26:02.378Z,74.05
2023-05-09T22:28:29.149Z,74.43
2023-05-09T22:30:56.076Z,73.51
2023-05-09T22:33:22.954Z,73.26
2023-05-09T22:35:49.792Z,73.44
2023-05-09T22:38:16.645Z,73.33
2023-05-09T22:40:43.822Z,74.24
2023-05-09T22:43:11.196Z,74.16
2023-05-09T22:45:38.349Z,74.59
2023-05-09T22:48:06.038Z,74.36
2023-05-09T22:50:33.031Z,74.98
2023-05-09T22:53:00.418Z,75.05
2023-05-09T22:55:27.325Z,75.12
2023-05-09T22:57:54.324Z,74.38
2023-05-09T23:00:21.848Z,74.36
2023-05-09T23:02:48.967Z,72.59
2023-05-09T23:05:16.109Z,72.25
2023-05-09T23:07:42.992Z,71.69
2023-05-09T23:10:10.429Z,70.96
2023-05-09T23:12:38.152Z,70.70
2023-05-09T23:15:06.409Z,70.20
2023-05-09T23:17:33.339Z,69.51
2023-05-09T23:20:00.979Z,69.32
2023-05-09T23:22:27.897Z,69.67
2023-05-09T23:24:54.892Z,69.16
2023-05-09T23:27:21.781Z,69.64
2023-05-09T23:29:49.028Z,68.76
2023-05-09T23:32:15.910Z,68.69
2023-05-09T23:34:42.817Z,68.78
2023-05-09T23:37:09.673Z,68.47
2023-05-09T23:39:36.618Z,68.88
2023-05-09T23:42:04.196Z,69.31
2023-05-09T23:44:31.411Z,69.18
2023-05-09T23:46:58.519Z,69.36
2023-05-09T23:49:25.519Z,69.69
2023-05-09T23:51:52.358Z,70.03
2023-05-09T23:54:21.479Z,70.03
2023-05-09T23:56:48.772Z,70.79
2023-05-09T23:59:15.914Z,70.62
